Airfield :
LOGIN :

Register | Disclaimer

   EN    FR    IT 

 










Legend :    VFR   Marginal VFR   IFR   Intensive IFR   Very Intensive IFR
Visi :
Ceiling :
>= 8 km
>= 3000ft
5 to 8 km
1000 to 3000 ft
1500m to 5 km
500 to 1000 ft
800 to 1500m
200 to 500 ft
< 800m
< 200 ft
Symbols :   Thunderstorms  Fog  Heavy snow  Heavy precipitations  Wind > 20 kt
SIGMETs :     Misc.  Thunderstorms  Icing  Turbulence  Mountain Waves  Volcanic Ashes






- Airport Elevation : 433 ft
- IATA code : CCF


LFMK - Carcassonne

CURRENT METAR :
  • 071400Z AUTO 28011KT CAVOK 14/07 Q1022 TEMPO BKN010

EXPIRED METARs :
  • 071330Z AUTO 28011KT CAVOK 14/07 Q1022 TEMPO BKN010
  • 071300Z AUTO 28009KT CAVOK 13/08 Q1023 TEMPO BKN010
  • 071230Z AUTO 27010KT CAVOK 13/09 Q1023 TEMPO BKN010
  • 071200Z AUTO 28013KT CAVOK 13/09 Q1023 TEMPO BKN010
  • 071130Z AUTO 27010KT 230V290 9999 FEW078 12/09 Q1024 TEMPO BKN010

TAF TAF LFMK
Valid from the 07 at 09:00 until the 08 at 09:00 UTC


070800Z 0709/0809 27010KT 9999 BKN020
TEMPO 0709/0806 BKN010



MET'MAP, your aeronautical weather chart ! - Copyright ORBIFLY December 2007 - Disclaimer

ORBIFLY MET'MAP TEAM :

Programming & Development : Alexandra Zaïnal
Concept & original design : Baudouin d'Aumeries
Assistance for programming : Marc-Olivier Méhu
Technical & hardware support : Manuel Goepfert

Contact : metmap@orbifly.com




SOURCES & CREDITS :

   NOAA